createdAt,value
2023-01-05T00:04:11.552Z,97.96
2023-01-05T00:09:05.302Z,98.78
2023-01-05T00:14:15.890Z,99.09
2023-01-05T00:19:30.224Z,99.07
2023-01-05T00:24:21.913Z,99.54
2023-01-05T00:29:14.460Z,100.00
2023-01-05T00:34:06.145Z,99.91
2023-01-05T00:38:57.845Z,99.44
2023-01-05T00:43:49.516Z,99.99
2023-01-05T00:48:41.211Z,100.00
2023-01-05T00:53:32.915Z,100.00
2023-01-05T00:58:24.708Z,100.00
2023-01-05T01:03:16.459Z,100.00
2023-01-05T01:08:08.242Z,100.00
2023-01-05T01:12:59.919Z,100.00
2023-01-05T01:17:51.638Z,100.00
2023-01-05T01:22:43.330Z,100.00
2023-01-05T01:27:35.274Z,99.53
2023-01-05T01:32:26.960Z,99.63
2023-01-05T01:37:19.060Z,99.03
2023-01-05T01:42:15.074Z,99.62
2023-01-05T01:47:07.709Z,99.75
2023-01-05T01:51:59.416Z,98.93
2023-01-05T01:56:55.763Z,99.94
2023-01-05T02:01:53.974Z,99.90
2023-01-05T02:06:45.773Z,100.00
2023-01-05T02:11:55.018Z,100.00
2023-01-05T02:17:15.578Z,100.00
2023-01-05T02:22:46.644Z,100.00
2023-01-05T02:27:59.460Z,100.00
2023-01-05T02:33:16.415Z,100.00
2023-01-05T02:38:33.337Z,100.00
2023-01-05T02:43:28.506Z,100.00
2023-01-05T02:48:20.275Z,100.00
2023-01-05T02:53:42.941Z,100.00
2023-01-05T02:58:48.082Z,100.00
2023-01-05T03:03:59.924Z,100.00
2023-01-05T03:08:59.277Z,100.00
2023-01-05T03:14:12.496Z,100.00
2023-01-05T03:19:31.051Z,100.00
2023-01-05T03:24:41.439Z,100.00
2023-01-05T03:29:51.768Z,100.00
2023-01-05T03:35:11.507Z,100.00
2023-01-05T03:40:15.193Z,100.00
2023-01-05T03:45:09.177Z,100.00
2023-01-05T03:50:00.921Z,100.00
2023-01-05T03:54:52.588Z,100.00
2023-01-05T03:59:44.284Z,100.00
2023-01-05T04:04:36.015Z,100.00
2023-01-05T04:09:27.699Z,100.00
2023-01-05T04:14:19.370Z,100.00
2023-01-05T04:19:11.214Z,100.00
2023-01-05T04:24:03.419Z,100.00
2023-01-05T04:28:55.098Z,100.00
2023-01-05T04:33:46.755Z,100.00
2023-01-05T04:38:40.873Z,100.00
2023-01-05T04:43:32.553Z,100.00
2023-01-05T04:48:24.264Z,100.00
2023-01-05T04:53:15.937Z,100.00
2023-01-05T04:58:11.727Z,100.00
2023-01-05T05:08:11.180Z,100.00
2023-01-05T05:13:04.659Z,100.00
2023-01-05T05:17:57.023Z,100.00
2023-01-05T05:27:55.946Z,100.00
2023-01-05T05:32:49.004Z,100.00
2023-01-05T05:37:44.490Z,100.00
2023-01-05T05:42:36.421Z,100.00
2023-01-05T05:47:35.881Z,100.00
2023-01-05T05:57:33.492Z,100.00
2023-01-05T06:02:26.114Z,100.00
2023-01-05T06:07:18.305Z,100.00
2023-01-05T06:12:10.128Z,100.00
2023-01-05T06:17:09.855Z,100.00
2023-01-05T06:22:09.456Z,100.00
2023-01-05T06:27:02.363Z,100.00
2023-01-05T06:47:18.858Z,100.00
2023-01-05T07:02:26.071Z,100.00
2023-01-05T07:12:25.628Z,100.00
2023-01-05T07:17:19.665Z,100.00
2023-01-05T07:22:15.343Z,100.00
2023-01-05T07:27:09.945Z,100.00
2023-01-05T07:32:05.850Z,100.00
2023-01-05T07:42:11.395Z,100.00
2023-01-05T07:47:04.394Z,100.00
2023-01-05T07:51:56.350Z,100.00
2023-01-05T08:01:54.684Z,100.00
2023-01-05T08:06:46.767Z,100.00
2023-01-05T08:11:39.620Z,100.00
2023-01-05T08:21:40.235Z,100.00
2023-01-05T08:31:42.103Z,100.00
2023-01-05T08:36:35.723Z,100.00
2023-01-05T09:02:01.361Z,100.00
2023-01-05T09:06:55.968Z,100.00
2023-01-05T09:11:48.506Z,100.00
2023-01-05T09:17:17.299Z,100.00
2023-01-05T09:32:17.949Z,100.00
2023-01-05T09:37:11.875Z,100.00
2023-01-05T09:42:17.853Z,100.00
2023-01-05T09:52:52.385Z,100.00
2023-01-05T10:04:02.555Z,100.00
2023-01-05T10:08:53.074Z,100.00
2023-01-05T10:30:48.890Z,100.00
2023-01-05T10:37:06.187Z,100.00
2023-01-05T10:42:14.789Z,100.00
2023-01-05T11:03:07.936Z,93.65
2023-01-05T11:55:41.029Z,90.17
2023-01-05T12:24:39.452Z,87.86
2023-01-05T12:58:42.999Z,88.16
2023-01-05T13:04:12.673Z,87.93
2023-01-05T13:25:27.516Z,90.92
2023-01-05T13:52:44.756Z,91.79
2023-01-05T14:30:56.903Z,93.29
2023-01-05T16:20:16.852Z,99.62
2023-01-05T16:30:45.133Z,100.00
2023-01-05T16:46:23.110Z,100.00
2023-01-05T17:12:01.919Z,100.00
2023-01-05T17:48:07.359Z,100.00
2023-01-05T18:03:43.787Z,100.00
2023-01-05T19:10:08.460Z,100.00
2023-01-05T19:15:00.897Z,100.00
2023-01-05T19:19:59.986Z,100.00
2023-01-05T19:40:15.013Z,100.00
2023-01-05T19:45:13.320Z,100.00
2023-01-05T19:50:09.449Z,100.00
2023-01-05T20:00:09.955Z,100.00
2023-01-05T20:10:11.227Z,100.00
2023-01-05T20:50:55.501Z,100.00
2023-01-05T21:11:16.057Z,100.00
2023-01-05T21:16:12.336Z,100.00
2023-01-05T21:26:18.301Z,100.00
2023-01-05T21:31:15.926Z,100.00
2023-01-05T21:46:50.520Z,100.00
2023-01-05T22:12:30.911Z,100.00
2023-01-05T22:17:23.494Z,100.00
2023-01-05T22:47:48.886Z,100.00
2023-01-05T22:57:47.792Z,100.00
2023-01-05T23:12:52.473Z,100.00
2023-01-05T23:48:35.555Z,100.00
2023-01-05T23:53:36.066Z,100.00
